Time;durP1;ratioP1;P1;durP2;ratioP2;P2;SDS_P1;SDS_P2;PMS_P1;PMS_P2;Temp;Humidity;BMP_temperature;BMP_pressure;BME280_temperature;BME280_humidity;BME280_pressure;Samples;Min_cycle;Max_cycle;Signal;HPM_P1;HPM_P2
2021/10/29 00:02:54;;;;;;;3.50;2.07;;;15.90;61.30;;;;;;20782998;28;20121;-76
2021/10/29 00:12:55;;;;;;;1.85;1.45;;;15.90;61.30;;;;;;20782063;28;20284;-77
2021/10/29 00:22:55;;;;;;;2.00;1.40;;;15.90;61.30;;;;;;20765478;28;20405;-76
2021/10/29 00:32:56;;;;;;;2.75;1.92;;;15.90;61.20;;;;;;20780715;28;20025;-76
2021/10/29 00:42:57;;;;;;;4.20;1.67;;;15.90;61.20;;;;;;20794807;28;20040;-76
2021/10/29 00:52:57;;;;;;;2.17;1.67;;;15.90;61.00;;;;;;20795620;28;20304;-75
2021/10/29 01:02:58;;;;;;;2.63;1.60;;;15.90;61.00;;;;;;20778425;28;20041;-76
2021/10/29 01:12:59;;;;;;;3.67;1.63;;;15.90;60.90;;;;;;20810185;28;20037;-75
2021/10/29 01:22:59;;;;;;;2.77;1.70;;;15.90;61.00;;;;;;20792907;28;20048;-76
2021/10/29 01:33:00;;;;;;;2.45;1.50;;;15.80;60.70;;;;;;20759806;28;20299;-76
2021/10/29 01:43:00;;;;;;;2.53;1.52;;;15.90;60.60;;;;;;20759093;28;20103;-76
2021/10/29 01:53:01;;;;;;;3.05;1.58;;;15.80;60.50;;;;;;20790146;28;20099;-75
2021/10/29 02:03:01;;;;;;;2.30;1.63;;;15.80;60.40;;;;;;20773963;28;20117;-76
2021/10/29 02:13:02;;;;;;;2.10;1.55;;;15.80;60.30;;;;;;20756988;28;20037;-76
2021/10/29 02:23:03;;;;;;;2.85;1.75;;;15.80;60.20;;;;;;20788844;28;20373;-75
2021/10/29 02:33:04;;;;;;;2.45;1.45;;;15.80;60.10;;;;;;20804944;28;20049;-75
2021/10/29 02:43:04;;;;;;;3.95;1.30;;;15.80;60.00;;;;;;20755751;28;20472;-76
2021/10/29 02:53:07;;;;;;;2.72;1.67;;;15.90;59.60;;;;;;20787928;28;20143;-76
2021/10/29 03:03:08;;;;;;;2.45;1.50;;;16.00;59.20;;;;;;20771288;28;20042;-75
2021/10/29 03:13:08;;;;;;;2.53;1.27;;;16.20;58.80;;;;;;20784297;28;20053;-75
2021/10/29 03:23:09;;;;;;;2.40;1.40;;;16.20;58.40;;;;;;20786079;28;20544;-75
2021/10/29 03:33:10;;;;;;;2.90;1.75;;;16.30;58.10;;;;;;20769349;28;20292;-76
2021/10/29 03:53:28;;;;;;;2.17;1.30;;;16.90;56.50;;;;;;20801644;28;20403;-76
2021/10/29 04:03:28;;;;;;;1.83;1.25;;;17.80;54.60;;;;;;20784436;28;20103;-77
2021/10/29 04:13:34;;;;;;;2.78;1.40;;;18.50;52.60;;;;;;20782828;28;20045;-77
2021/10/29 04:23:35;;;;;;;2.25;1.25;;;18.90;51.40;;;;;;20798480;28;20116;-75
2021/10/29 04:33:35;;;;;;;2.42;1.55;;;19.00;51.00;;;;;;20797659;28;20076;-76
2021/10/29 04:43:38;;;;;;;2.80;1.60;;;18.70;51.10;;;;;;20764494;28;20523;-76
2021/10/29 04:53:38;;;;;;;2.58;1.65;;;18.00;52.20;;;;;;20779906;28;20296;-75
2021/10/29 05:03:39;;;;;;;2.85;1.65;;;17.20;53.40;;;;;;20795214;28;20399;-76
2021/10/29 05:13:40;;;;;;;2.75;1.70;;;16.80;54.60;;;;;;20777716;28;20037;-76
2021/10/29 05:23:40;;;;;;;2.47;1.70;;;16.40;55.40;;;;;;20777143;28;20049;-76
2021/10/29 05:33:41;;;;;;;5.13;1.75;;;16.10;55.90;;;;;;20759823;28;20403;-75
2021/10/29 05:43:42;;;;;;;3.53;1.85;;;16.00;56.30;;;;;;20776291;28;20029;-76
2021/10/29 06:03:49;;;;;;;3.55;2.10;;;16.00;56.60;;;;;;20792225;28;20296;-76
2021/10/29 06:13:50;;;;;;;2.73;1.97;;;16.00;56.40;;;;;;20789605;28;20036;-76
2021/10/29 06:24:00;;;;;;;2.80;1.55;;;16.10;56.20;;;;;;20805947;28;20044;-75
2021/10/29 06:34:00;;;;;;;2.10;1.23;;;16.20;56.00;;;;;;20775292;28;20447;-75
2021/10/29 06:44:14;;;;;;;2.28;1.50;;;16.20;55.80;;;;;;20798174;28;20037;-74
2021/10/29 07:45:44;;;;;;;2.47;1.70;;;16.20;55.70;;;;;;20807054;28;20113;-75
2021/10/29 07:55:45;;;;;;;2.47;1.30;;;16.20;55.80;;;;;;20785031;28;20421;-76
2021/10/29 08:05:46;;;;;;;1.58;1.23;;;16.20;55.90;;;;;;20785740;28;20034;-78
2021/10/29 08:15:52;;;;;;;1.70;1.20;;;16.20;56.00;;;;;;20770181;28;20041;-86
2021/10/29 08:25:53;;;;;;;2.63;1.52;;;16.20;56.20;;;;;;20804766;28;20758;-78
2021/10/29 08:35:53;;;;;;;3.92;1.23;;;16.20;56.40;;;;;;20802105;28;20128;-78
2021/10/29 08:45:54;;;;;;;2.47;1.27;;;16.20;56.50;;;;;;20754598;28;20169;-78
2021/10/29 08:56:00;;;;;;;3.83;1.52;;;16.20;56.70;;;;;;20786745;28;20029;-74
2021/10/29 09:36:51;;;;;;;2.22;1.05;;;16.30;57.30;;;;;;20794282;28;19913;-81
2021/10/29 09:47:01;;;;;;;2.00;1.40;;;16.40;57.20;;;;;;20792631;28;20369;-79
2021/10/29 09:57:02;;;;;;;2.63;1.13;;;16.50;57.00;;;;;;20808048;28;20042;-86
2021/10/29 10:07:02;;;;;;;1.77;1.02;;;16.60;57.50;;;;;;20774888;28;20475;-77
2021/10/29 10:17:03;;;;;;;1.30;0.95;;;16.70;56.80;;;;;;20772780;28;20541;-77
2021/10/29 10:47:59;;;;;;;2.30;1.20;;;16.60;57.00;;;;;;21165356;23;20507;-77
2021/10/29 10:58:21;;;;;;;1.52;1.00;;;16.50;57.50;;;;;;20708003;28;20050;-75
2021/10/29 11:18:31;;;;;;;;;;;16.00;58.80;;;;;;20739278;28;20050;-76
2021/10/29 11:28:43;;;;;;;3.08;1.27;;;15.90;59.50;;;;;;20748055;28;19909;-78
2021/10/29 11:38:46;;;;;;;1.70;0.90;;;15.60;59.90;;;;;;20694571;28;20049;-80
2021/10/29 11:48:50;;;;;;;1.40;0.68;;;15.60;60.40;;;;;;20707542;28;20416;-76
2021/10/29 11:59:07;;;;;;;1.80;0.90;;;15.50;60.90;;;;;;20756875;28;20528;-77
2021/10/29 12:09:28;;;;;;;2.35;1.00;;;15.40;61.20;;;;;;20711506;28;20029;-77
2021/10/29 12:19:29;;;;;;;2.00;1.02;;;15.40;61.50;;;;;;20707623;28;20101;-79
2021/10/29 12:29:33;;;;;;;1.15;0.90;;;15.40;61.70;;;;;;20720550;28;20165;-78
2021/10/29 13:10:44;;;;;;;1.35;0.77;;;15.50;62.00;;;;;;20723708;28;20092;-80
2021/10/29 13:51:34;;;;;;;1.50;0.70;;;15.80;61.90;;;;;;20702803;28;20080;-77
2021/10/29 14:01:46;;;;;;;1.95;1.02;;;16.10;61.40;;;;;;20713301;28;20476;-76
2021/10/29 14:43:05;;;;;;;3.60;0.80;;;18.50;56.10;;;;;;20707572;28;20408;-77
2021/10/29 15:03:42;;;;;;;1.25;0.88;;;19.30;53.60;;;;;;20695384;28;20041;-78
2021/10/29 15:44:43;;;;;;;1.60;0.88;;;17.30;57.00;;;;;;20748869;28;20037;-81
2021/10/29 15:54:52;;;;;;;1.52;0.90;;;16.80;58.30;;;;;;20696983;28;20475;-79
2021/10/29 16:25:36;;;;;;;1.15;0.60;;;16.00;60.70;;;;;;20727363;28;20632;-77
2021/10/29 16:35:38;;;;;;;2.43;0.93;;;15.90;61.10;;;;;;20693496;28;20050;-79
2021/10/29 16:45:44;;;;;;;1.83;0.95;;;15.90;61.40;;;;;;20731707;28;20431;-79
2021/10/29 16:55:45;;;;;;;1.60;0.90;;;15.90;61.40;;;;;;20700337;28;20100;-78
2021/10/29 17:05:46;;;;;;;1.87;0.80;;;16.00;61.30;;;;;;20684130;28;20045;-75
2021/10/29 17:15:46;;;;;;;1.10;0.70;;;16.10;61.20;;;;;;20713283;28;20299;-79
2021/10/29 17:25:47;;;;;;;1.25;0.73;;;16.10;61.10;;;;;;20695438;28;20037;-74
2021/10/29 17:35:48;;;;;;;1.45;0.70;;;16.20;61.00;;;;;;20694609;28;20152;-74
2021/10/29 17:45:51;;;;;;;1.65;0.85;;;16.20;60.80;;;;;;20726341;28;20113;-82
2021/10/29 17:55:52;;;;;;;2.03;1.05;;;16.20;60.80;;;;;;20694180;28;20503;-80
2021/10/29 18:05:52;;;;;;;1.17;0.70;;;16.30;60.80;;;;;;20674992;28;20034;-75
2021/10/29 18:15:53;;;;;;;1.98;1.13;;;16.20;60.80;;;;;;20707798;28;20818;-74
2021/10/29 18:25:54;;;;;;;2.23;1.13;;;16.20;60.80;;;;;;20690942;28;20093;-74
2021/10/29 18:35:54;;;;;;;2.28;1.10;;;16.20;60.80;;;;;;20711298;28;20395;-74
2021/10/29 18:45:55;;;;;;;1.95;1.15;;;16.20;61.50;;;;;;20706024;28;20036;-74
2021/10/29 18:55:56;;;;;;;2.08;1.15;;;16.20;60.80;;;;;;20706513;28;20037;-74
2021/10/29 19:05:57;;;;;;;2.30;1.10;;;16.20;60.90;;;;;;20727909;28;20700;-73
2021/10/29 19:15:57;;;;;;;3.33;0.90;;;16.10;60.90;;;;;;20689575;28;20042;-73
2021/10/29 19:26:00;;;;;;;2.90;1.33;;;16.10;60.90;;;;;;20705477;28;20058;-74
2021/10/29 19:36:07;;;;;;;2.58;1.50;;;16.10;60.90;;;;;;20721709;28;20053;-74
2021/10/29 19:46:08;;;;;;;1.70;1.25;;;16.10;60.90;;;;;;20690628;28;20030;-74
2021/10/29 19:56:10;;;;;;;1.98;1.10;;;16.10;60.90;;;;;;20718056;28;20034;-74
2021/10/29 20:06:11;;;;;;;2.85;1.20;;;16.10;60.90;;;;;;20718057;28;20038;-73
2021/10/29 20:16:11;;;;;;;2.08;1.48;;;16.10;61.00;;;;;;20684557;28;20042;-74
2021/10/29 20:26:12;;;;;;;1.90;1.30;;;16.10;60.90;;;;;;20699157;28;20034;-74
2021/10/29 20:36:13;;;;;;;2.15;1.25;;;16.10;60.90;;;;;;20697596;28;20720;-74
2021/10/29 20:46:13;;;;;;;1.60;1.10;;;16.00;60.90;;;;;;20716031;28;20037;-74
2021/10/29 20:56:14;;;;;;;2.35;1.38;;;16.00;60.90;;;;;;20715589;28;20300;-72
2021/10/29 21:06:21;;;;;;;2.17;1.30;;;16.00;61.60;;;;;;20697501;28;20026;-74
2021/10/29 21:16:22;;;;;;;2.15;1.20;;;16.00;60.90;;;;;;20698690;28;20659;-72
2021/10/29 21:26:22;;;;;;;4.03;1.60;;;16.00;60.90;;;;;;20713680;28;20030;-73
2021/10/29 21:36:23;;;;;;;2.27;1.60;;;16.00;60.90;;;;;;20679485;28;20046;-73
2021/10/29 21:46:24;;;;;;;3.08;1.38;;;16.00;60.90;;;;;;20695347;28;20831;-73
2021/10/29 21:56:25;;;;;;;3.00;1.55;;;16.00;60.80;;;;;;20711778;28;20042;-74
2021/10/29 22:06:25;;;;;;;2.65;1.45;;;16.00;60.80;;;;;;20692944;28;20038;-73
2021/10/29 22:16:26;;;;;;;1.48;1.05;;;16.00;60.80;;;;;;20693145;28;20080;-73
2021/10/29 22:26:30;;;;;;;2.05;1.50;;;15.90;60.70;;;;;;20692190;28;20125;-73
2021/10/29 22:36:34;;;;;;;2.50;1.38;;;15.90;61.30;;;;;;20692305;28;20084;-73
2021/10/29 22:46:35;;;;;;;2.85;1.90;;;15.90;60.60;;;;;;20691608;28;20041;-72
2021/10/29 22:56:36;;;;;;;2.50;1.60;;;15.90;60.60;;;;;;20690734;28;20038;-73
2021/10/29 23:06:36;;;;;;;2.05;1.35;;;15.90;60.60;;;;;;20706622;28;20062;-73
2021/10/29 23:16:37;;;;;;;2.22;1.58;;;15.90;60.50;;;;;;20674651;28;20034;-73
2021/10/29 23:26:37;;;;;;;3.88;1.42;;;15.90;60.40;;;;;;20697347;28;20534;-73
2021/10/29 23:36:38;;;;;;;2.60;1.33;;;15.90;60.40;;;;;;20705658;28;20400;-73
2021/10/29 23:46:39;;;;;;;4.53;2.07;;;15.90;60.30;;;;;;20703890;28;20034;-73
2021/10/29 23:56:39;;;;;;;2.00;1.43;;;15.90;60.30;;;;;;20703413;28;20367;-74
